createdAt,value
2019-03-08T00:01:27.606Z,64.30
2019-03-08T00:03:57.951Z,64.50
2019-03-08T00:06:26.957Z,64.30
2019-03-08T00:08:55.855Z,63.80
2019-03-08T00:11:26.352Z,63.90
2019-03-08T00:13:55.112Z,63.90
2019-03-08T00:16:25.497Z,64.30
2019-03-08T00:18:59.035Z,64.20
2019-03-08T00:21:29.671Z,64.80
2019-03-08T00:23:58.394Z,65.10
2019-03-08T00:26:27.769Z,65.20
2019-03-08T00:28:57.020Z,66.00
2019-03-08T00:31:26.446Z,65.60
2019-03-08T00:33:55.382Z,67.30
2019-03-08T00:36:25.396Z,66.50
2019-03-08T00:38:54.999Z,66.50
2019-03-08T00:41:25.024Z,66.60
2019-03-08T00:43:53.727Z,66.50
2019-03-08T00:46:24.361Z,66.30
2019-03-08T00:48:53.203Z,65.90
2019-03-08T00:51:22.780Z,66.00
2019-03-08T00:53:55.083Z,66.90
2019-03-08T00:56:23.877Z,65.90
2019-03-08T00:58:52.998Z,66.70
2019-03-08T01:01:22.010Z,67.00
2019-03-08T01:03:50.781Z,67.80
2019-03-08T01:06:19.572Z,68.30
2019-03-08T01:08:48.310Z,68.30
2019-03-08T01:11:17.154Z,68.60
2019-03-08T01:13:48.535Z,69.00
2019-03-08T01:16:17.290Z,69.30
2019-03-08T01:18:46.174Z,69.60
2019-03-08T01:21:15.060Z,69.80
2019-03-08T01:23:43.894Z,70.10
2019-03-08T01:26:13.229Z,70.10
2019-03-08T01:28:42.991Z,70.30
2019-03-08T01:31:12.269Z,70.60
2019-03-08T01:33:42.779Z,71.00
2019-03-08T01:36:13.951Z,71.60
2019-03-08T01:38:42.943Z,72.10
2019-03-08T01:41:12.153Z,72.30
2019-03-08T01:43:41.565Z,72.60
2019-03-08T01:46:11.886Z,72.90
2019-03-08T01:48:44.341Z,73.50
2019-03-08T01:51:12.844Z,73.90
2019-03-08T01:53:43.820Z,74.30
2019-03-08T01:56:12.522Z,74.80
2019-03-08T01:58:41.099Z,75.20
2019-03-08T02:01:11.058Z,75.40
2019-03-08T02:03:40.586Z,75.70
2019-03-08T02:06:09.888Z,76.70
2019-03-08T02:08:38.612Z,76.00
2019-03-08T02:11:08.784Z,76.00
2019-03-08T02:13:37.767Z,76.00
2019-03-08T02:16:08.910Z,76.30
2019-03-08T02:18:39.642Z,76.20
2019-03-08T02:21:08.514Z,76.10
2019-03-08T02:23:37.473Z,76.10
2019-03-08T02:26:06.130Z,75.80
2019-03-08T02:28:35.132Z,75.60
2019-03-08T02:31:03.976Z,75.40
2019-03-08T02:33:37.600Z,75.20
2019-03-08T02:36:07.651Z,75.00
2019-03-08T02:38:39.309Z,74.90
2019-03-08T02:41:08.139Z,74.60
2019-03-08T02:43:39.321Z,74.40
2019-03-08T02:46:08.596Z,74.60
2019-03-08T02:48:37.741Z,75.00
2019-03-08T02:51:07.798Z,74.90
2019-03-08T02:53:38.848Z,74.70
2019-03-08T02:56:09.831Z,74.60
2019-03-08T02:58:41.083Z,75.00
2019-03-08T03:01:13.272Z,75.20
2019-03-08T03:03:52.830Z,75.60
2019-03-08T03:06:23.353Z,76.10
2019-03-08T03:08:52.089Z,76.70
2019-03-08T03:11:20.827Z,77.00
2019-03-08T03:13:49.795Z,77.40
2019-03-08T03:16:22.468Z,77.70
2019-03-08T03:18:53.371Z,78.10
2019-03-08T03:21:22.203Z,78.60
2019-03-08T03:23:52.006Z,79.10
2019-03-08T03:26:20.890Z,79.30
2019-03-08T03:28:49.592Z,79.70
2019-03-08T03:31:19.778Z,79.70
2019-03-08T03:33:48.426Z,79.80
2019-03-08T03:36:17.216Z,80.00
2019-03-08T03:38:46.008Z,80.00
2019-03-08T03:41:14.908Z,80.30
2019-03-08T03:43:43.638Z,80.50
2019-03-08T03:46:14.226Z,80.80
2019-03-08T03:48:42.979Z,81.40
2019-03-08T03:51:11.791Z,81.60
2019-03-08T03:53:40.455Z,81.90
2019-03-08T03:56:09.171Z,82.30
2019-03-08T03:58:38.321Z,82.60
2019-03-08T04:01:20.414Z,82.80
2019-03-08T04:03:49.201Z,83.10
2019-03-08T04:06:19.444Z,83.40
2019-03-08T04:08:48.179Z,83.60
2019-03-08T04:11:16.939Z,83.80
2019-03-08T04:13:46.687Z,84.00
2019-03-08T04:16:15.372Z,84.20
2019-03-08T04:18:44.024Z,84.00
2019-03-08T04:21:13.026Z,84.00
2019-03-08T04:23:41.691Z,83.80
2019-03-08T04:26:10.379Z,83.90
2019-03-08T04:28:39.438Z,83.90
2019-03-08T04:31:08.462Z,84.00
2019-03-08T04:33:37.625Z,83.90
2019-03-08T04:36:06.534Z,83.40
2019-03-08T04:38:35.239Z,83.30
2019-03-08T04:41:04.126Z,83.30
2019-03-08T04:43:34.239Z,83.30
2019-03-08T04:46:02.921Z,83.10
2019-03-08T04:48:32.144Z,82.90
2019-03-08T04:51:00.722Z,82.60
2019-03-08T04:53:30.351Z,82.70
2019-03-08T04:56:00.526Z,82.70
2019-03-08T04:58:29.782Z,82.00
2019-03-08T05:00:58.499Z,81.60
2019-03-08T05:03:29.313Z,81.20
2019-03-08T05:05:58.060Z,81.00
2019-03-08T05:08:29.105Z,81.00
2019-03-08T05:10:57.995Z,81.10
2019-03-08T05:13:28.257Z,81.10
2019-03-08T05:15:56.993Z,80.80
2019-03-08T05:18:25.918Z,80.80
2019-03-08T05:20:54.584Z,80.60
2019-03-08T05:23:25.194Z,80.30
2019-03-08T05:25:58.524Z,80.30
2019-03-08T05:28:31.475Z,80.00
2019-03-08T05:31:00.333Z,79.90
2019-03-08T05:33:32.064Z,79.40
2019-03-08T05:36:01.535Z,78.80
2019-03-08T05:38:30.161Z,78.40
2019-03-08T05:40:58.823Z,77.90
2019-03-08T05:43:28.946Z,77.60
2019-03-08T05:46:01.396Z,77.40
2019-03-08T05:48:30.168Z,77.40
2019-03-08T05:50:58.828Z,77.10
2019-03-08T05:53:27.603Z,76.80
2019-03-08T05:55:56.343Z,76.20
2019-03-08T05:58:26.072Z,75.70
2019-03-08T06:00:56.383Z,75.30
2019-03-08T06:03:25.275Z,74.70
2019-03-08T06:05:54.316Z,73.80
2019-03-08T06:08:22.983Z,71.30
2019-03-08T06:10:51.763Z,69.20
2019-03-08T06:13:22.267Z,66.50
2019-03-08T06:15:51.043Z,64.30
2019-03-08T06:18:19.892Z,63.00
2019-03-08T06:20:48.836Z,61.10
2019-03-08T06:23:18.059Z,60.30
2019-03-08T06:25:49.449Z,60.20
2019-03-08T06:28:20.082Z,60.00
2019-03-08T06:30:48.795Z,60.20
2019-03-08T06:33:17.566Z,59.20
2019-03-08T06:35:46.277Z,58.10
2019-03-08T06:38:14.963Z,57.70
2019-03-08T06:40:46.041Z,57.80
2019-03-08T06:43:14.829Z,57.50
2019-03-08T06:45:43.795Z,57.00
2019-03-08T06:48:14.772Z,55.40
2019-03-08T06:50:43.500Z,54.70
2019-03-08T06:53:12.490Z,54.40
2019-03-08T06:55:41.641Z,53.60
2019-03-08T06:58:10.395Z,53.80
2019-03-08T07:00:47.619Z,53.70
2019-03-08T07:03:18.571Z,54.10
2019-03-08T07:05:47.875Z,53.60
2019-03-08T07:08:16.606Z,52.60
2019-03-08T07:10:45.380Z,52.10
2019-03-08T07:13:14.155Z,51.80
2019-03-08T07:15:46.773Z,52.10
2019-03-08T07:18:20.034Z,52.10
2019-03-08T07:20:51.791Z,51.60
2019-03-08T07:23:28.214Z,50.80
2019-03-08T07:26:03.676Z,50.00
2019-03-08T07:28:36.909Z,49.60
2019-03-08T07:31:24.285Z,49.90
2019-03-08T07:34:11.937Z,49.10
2019-03-08T07:36:47.295Z,48.70
2019-03-08T07:39:25.510Z,48.20
2019-03-08T07:42:13.184Z,47.90
2019-03-08T07:44:45.163Z,49.40
2019-03-08T07:47:29.964Z,48.90
2019-03-08T07:50:13.767Z,47.50
2019-03-08T07:53:05.344Z,46.40
2019-03-08T07:55:47.858Z,46.90
2019-03-08T07:58:37.739Z,47.40
2019-03-08T08:01:15.633Z,47.50
2019-03-08T08:03:49.992Z,47.90
2019-03-08T08:06:26.407Z,48.00
2019-03-08T08:08:57.148Z,48.30
2019-03-08T08:11:34.681Z,47.30
2019-03-08T08:14:20.251Z,46.30
2019-03-08T08:16:56.439Z,45.90
2019-03-08T08:19:26.879Z,44.10
2019-03-08T08:22:13.385Z,43.70
2019-03-08T08:24:43.940Z,44.20
2019-03-08T08:27:15.585Z,43.80
2019-03-08T08:29:50.143Z,44.40
2019-03-08T08:32:32.896Z,44.50
2019-03-08T08:35:06.770Z,43.40
2019-03-08T08:37:37.203Z,42.00
2019-03-08T08:40:20.189Z,41.40
2019-03-08T08:42:56.243Z,42.30
2019-03-08T08:45:34.810Z,42.00
2019-03-08T08:48:11.492Z,42.30
2019-03-08T08:50:43.463Z,42.50
2019-03-08T08:53:29.737Z,41.80
2019-03-08T08:56:13.496Z,41.60
2019-03-08T08:59:03.051Z,42.00
2019-03-08T09:01:42.699Z,42.40
2019-03-08T09:04:20.729Z,42.50
2019-03-08T09:07:09.919Z,41.70
2019-03-08T09:09:58.259Z,40.60
2019-03-08T09:12:31.802Z,40.10
2019-03-08T09:15:02.870Z,39.70
2019-03-08T09:17:34.466Z,41.00
2019-03-08T09:20:08.368Z,41.10
2019-03-08T09:22:38.621Z,40.40
2019-03-08T09:25:10.747Z,39.80
2019-03-08T09:27:57.615Z,38.70
2019-03-08T09:30:44.375Z,38.50
2019-03-08T09:33:12.059Z,38.50
2019-03-08T09:35:42.770Z,37.50
2019-03-08T09:38:23.687Z,39.90
2019-03-08T09:40:59.812Z,40.40
2019-03-08T09:43:46.291Z,41.60
2019-03-08T09:46:28.807Z,42.20
2019-03-08T09:49:13.342Z,42.70
2019-03-08T09:51:46.968Z,42.90
2019-03-08T09:54:33.536Z,44.40
2019-03-08T09:57:20.713Z,45.30
2019-03-08T09:59:54.169Z,44.30
2019-03-08T10:02:39.095Z,43.30
2019-03-08T10:05:17.524Z,42.00
2019-03-08T10:07:51.847Z,42.00
2019-03-08T10:10:29.378Z,42.20
2019-03-08T10:13:15.827Z,41.30
2019-03-08T10:15:52.690Z,40.80
2019-03-08T10:18:23.214Z,40.40
2019-03-08T10:21:00.538Z,40.10
2019-03-08T10:23:38.480Z,39.50
2019-03-08T10:26:11.179Z,38.70
2019-03-08T10:28:59.459Z,38.00
2019-03-08T10:31:32.812Z,38.20
2019-03-08T10:34:09.963Z,37.90
2019-03-08T10:36:49.810Z,36.90
2019-03-08T10:39:34.631Z,36.70
2019-03-08T10:42:05.180Z,36.30
2019-03-08T10:44:39.791Z,37.70
2019-03-08T10:47:20.024Z,37.20
2019-03-08T10:50:07.846Z,37.80
2019-03-08T10:52:54.414Z,38.80
2019-03-08T10:55:44.271Z,39.40
2019-03-08T10:58:30.273Z,38.90
2019-03-08T11:01:14.056Z,36.60
2019-03-08T11:04:03.613Z,35.00
2019-03-08T11:06:43.020Z,35.00
2019-03-08T11:09:24.506Z,34.00
2019-03-08T11:12:14.006Z,34.70
2019-03-08T11:14:44.493Z,36.30
2019-03-08T11:17:22.437Z,36.10
2019-03-08T11:20:00.893Z,35.40
2019-03-08T11:22:50.481Z,36.80
2019-03-08T11:25:34.726Z,37.50
2019-03-08T11:28:03.392Z,37.70
2019-03-08T11:30:38.823Z,38.10
2019-03-08T11:33:30.286Z,37.90
2019-03-08T11:36:00.946Z,37.70
2019-03-08T11:38:31.285Z,38.70
2019-03-08T11:41:09.895Z,39.00
2019-03-08T11:43:42.430Z,39.10
2019-03-08T11:46:17.290Z,39.80
2019-03-08T11:49:06.088Z,39.50
2019-03-08T11:51:43.835Z,39.30
2019-03-08T11:54:21.804Z,39.10
2019-03-08T11:57:04.571Z,39.70
2019-03-08T11:59:37.537Z,40.20
2019-03-08T12:02:13.727Z,40.80
2019-03-08T12:04:46.787Z,41.10
2019-03-08T12:07:22.699Z,41.50
2019-03-08T12:09:53.577Z,41.30
2019-03-08T12:12:27.350Z,41.00
2019-03-08T12:15:04.618Z,41.60
2019-03-08T12:17:35.187Z,41.80
2019-03-08T12:20:07.497Z,42.60
2019-03-08T12:22:49.862Z,42.80
2019-03-08T12:25:30.219Z,42.60
2019-03-08T12:28:01.354Z,43.10
2019-03-08T12:30:35.832Z,42.70
2019-03-08T12:33:09.883Z,42.70
2019-03-08T12:35:46.789Z,43.30
2019-03-08T12:38:26.893Z,43.10
2019-03-08T12:41:03.227Z,43.30
2019-03-08T12:43:34.195Z,43.60
2019-03-08T12:46:06.089Z,43.80
2019-03-08T12:48:50.209Z,43.80
2019-03-08T12:51:23.366Z,44.30
2019-03-08T12:54:02.778Z,44.10
2019-03-08T12:56:51.438Z,44.50
2019-03-08T12:59:23.524Z,44.50
2019-03-08T13:02:02.957Z,44.30
2019-03-08T13:04:40.421Z,44.30
2019-03-08T13:07:15.195Z,44.20
2019-03-08T13:09:49.493Z,44.20
2019-03-08T13:12:18.469Z,44.30
2019-03-08T13:14:47.414Z,44.50
2019-03-08T13:17:24.281Z,44.30
2019-03-08T13:19:55.032Z,44.40
2019-03-08T13:22:25.062Z,44.60
2019-03-08T13:24:56.096Z,45.50
2019-03-08T13:27:25.433Z,44.40
2019-03-08T13:29:54.435Z,44.40
2019-03-08T13:32:23.261Z,44.30
2019-03-08T13:34:55.131Z,44.50
2019-03-08T13:37:23.973Z,44.30
2019-03-08T13:39:52.726Z,44.60
2019-03-08T13:42:21.892Z,45.10
2019-03-08T13:44:52.781Z,44.80
2019-03-08T13:47:27.644Z,44.80
2019-03-08T13:49:56.343Z,44.90
2019-03-08T13:52:28.895Z,44.90
2019-03-08T13:54:58.237Z,45.10
2019-03-08T13:57:27.060Z,44.80
2019-03-08T13:59:56.564Z,44.90
2019-03-08T14:02:25.773Z,44.80
2019-03-08T14:04:55.220Z,45.00
2019-03-08T14:07:24.779Z,45.00
2019-03-08T14:09:54.050Z,45.00
2019-03-08T14:12:22.831Z,44.90
2019-03-08T14:14:52.423Z,45.10
2019-03-08T14:17:21.223Z,45.20
2019-03-08T14:19:49.986Z,44.50
2019-03-08T14:22:21.282Z,44.30
2019-03-08T14:24:52.955Z,45.00
2019-03-08T14:27:24.241Z,44.70
2019-03-08T14:29:58.822Z,44.60
2019-03-08T14:32:27.881Z,45.20
2019-03-08T14:34:56.693Z,44.30
2019-03-08T14:37:27.770Z,44.10
2019-03-08T14:40:05.761Z,44.50
2019-03-08T14:42:40.411Z,44.40
2019-03-08T14:45:11.690Z,44.70
2019-03-08T14:47:40.564Z,44.80
2019-03-08T14:50:10.428Z,44.80
2019-03-08T14:52:41.188Z,45.10
2019-03-08T14:55:13.581Z,45.80
2019-03-08T14:57:44.219Z,46.30
2019-03-08T15:00:21.305Z,46.50
2019-03-08T15:02:50.795Z,46.70
2019-03-08T15:05:23.229Z,47.00
2019-03-08T15:07:54.109Z,47.60
2019-03-08T15:10:22.908Z,47.50
2019-03-08T15:12:53.158Z,47.60
2019-03-08T15:15:24.013Z,47.80
2019-03-08T15:17:55.321Z,48.40
2019-03-08T15:20:25.646Z,48.30
2019-03-08T15:22:54.403Z,48.10
2019-03-08T15:25:25.583Z,48.20
2019-03-08T15:27:54.404Z,48.30
2019-03-08T15:30:23.213Z,48.40
2019-03-08T15:32:52.000Z,48.40
2019-03-08T15:35:21.452Z,48.10
2019-03-08T15:37:50.595Z,47.80
2019-03-08T15:40:21.291Z,47.40
2019-03-08T15:42:52.810Z,47.70
2019-03-08T15:45:21.887Z,47.10
2019-03-08T15:47:51.081Z,46.30
2019-03-08T15:50:22.760Z,46.40
2019-03-08T15:52:54.079Z,46.60
2019-03-08T15:55:28.479Z,46.50
2019-03-08T15:57:58.276Z,46.70
2019-03-08T16:00:27.094Z,46.20
2019-03-08T16:02:57.221Z,46.30
2019-03-08T16:05:28.389Z,46.20
2019-03-08T16:08:03.526Z,46.50
2019-03-08T16:10:30.135Z,46.50
2019-03-08T16:13:02.000Z,46.20
2019-03-08T16:15:32.022Z,46.30
2019-03-08T16:18:00.979Z,46.70
2019-03-08T16:20:37.154Z,46.90
2019-03-08T16:23:06.687Z,47.00
2019-03-08T16:25:34.135Z,47.00
2019-03-08T16:28:03.040Z,47.10
2019-03-08T16:30:47.602Z,47.30
2019-03-08T16:33:18.792Z,47.10
2019-03-08T16:36:03.036Z,47.20
2019-03-08T16:38:33.434Z,47.30
2019-03-08T16:41:09.388Z,47.90
2019-03-08T16:43:55.887Z,47.80
2019-03-08T16:46:31.722Z,48.20
2019-03-08T16:49:03.000Z,48.30
2019-03-08T16:51:41.955Z,48.60
2019-03-08T16:54:30.118Z,48.70
2019-03-08T16:57:08.226Z,49.00
2019-03-08T16:59:38.590Z,49.30
2019-03-08T17:02:15.228Z,49.60
2019-03-08T17:04:48.539Z,49.90
2019-03-08T17:07:21.488Z,50.20
2019-03-08T17:10:08.609Z,50.50
2019-03-08T17:12:51.959Z,50.30
2019-03-08T17:15:40.940Z,50.80
2019-03-08T17:21:17.760Z,50.40
2019-03-08T17:24:03.465Z,50.10
2019-03-08T17:26:39.975Z,51.80
2019-03-08T17:29:14.724Z,53.00
2019-03-08T17:31:50.515Z,57.60
2019-03-08T17:34:39.320Z,61.80
2019-03-08T17:37:28.360Z,64.20
2019-03-08T17:40:18.544Z,66.20
2019-03-08T17:42:57.545Z,68.20
2019-03-08T17:45:38.745Z,68.20
2019-03-08T17:51:20.205Z,67.50
2019-03-08T17:54:06.688Z,67.50
2019-03-08T17:56:37.267Z,67.10
2019-03-08T17:59:13.679Z,66.80
2019-03-08T18:01:46.830Z,66.90
2019-03-08T18:04:17.733Z,66.60
2019-03-08T18:06:49.422Z,65.30
2019-03-08T18:09:32.111Z,66.10
2019-03-08T18:12:10.992Z,65.60
2019-03-08T18:14:44.561Z,65.60
2019-03-08T18:17:14.911Z,65.90
2019-03-08T18:19:49.069Z,65.80
2019-03-08T18:22:19.453Z,66.00
2019-03-08T18:25:07.623Z,66.70
2019-03-08T18:27:54.124Z,67.20
2019-03-08T18:30:40.752Z,67.50
2019-03-08T18:33:16.938Z,67.30
2019-03-08T18:35:54.270Z,67.90
2019-03-08T18:38:41.495Z,68.10
2019-03-08T18:41:17.763Z,69.00
2019-03-08T18:44:03.670Z,69.00
2019-03-08T18:46:36.958Z,69.80
2019-03-08T18:49:07.258Z,69.80
2019-03-08T18:51:43.040Z,70.20
2019-03-08T18:54:25.486Z,70.00
2019-03-08T18:57:02.434Z,69.20
2019-03-08T18:59:32.819Z,68.90
2019-03-08T19:02:11.966Z,69.10
2019-03-08T19:04:42.339Z,69.40
2019-03-08T19:07:28.560Z,69.80
2019-03-08T19:10:05.769Z,70.50
2019-03-08T19:12:38.898Z,71.10
2019-03-08T19:15:30.756Z,71.60
2019-03-08T19:18:14.481Z,72.00
2019-03-08T19:20:47.842Z,72.20
2019-03-08T19:23:18.144Z,72.00
2019-03-08T19:25:54.254Z,72.30
2019-03-08T19:28:28.881Z,72.50
2019-03-08T19:31:17.874Z,72.90
2019-03-08T19:33:54.287Z,73.00
2019-03-08T19:36:31.408Z,73.00
2019-03-08T19:39:07.481Z,72.90
2019-03-08T19:41:43.395Z,73.10
2019-03-08T19:44:28.842Z,72.70
2019-03-08T19:47:15.680Z,72.50
2019-03-08T19:49:45.976Z,72.60
2019-03-08T19:52:22.473Z,72.50
2019-03-08T19:54:53.452Z,72.50
2019-03-08T19:57:33.093Z,72.60
2019-03-08T20:00:20.233Z,72.50
2019-03-08T20:02:50.663Z,73.00
2019-03-08T20:05:20.962Z,72.50
2019-03-08T20:07:56.374Z,73.00
2019-03-08T20:10:27.362Z,72.20
2019-03-08T20:13:13.871Z,72.50
2019-03-08T20:16:02.119Z,72.40
2019-03-08T20:18:38.299Z,72.50
2019-03-08T20:21:08.629Z,72.50
2019-03-08T20:23:41.657Z,72.80
2019-03-08T20:26:28.284Z,72.80
2019-03-08T20:29:02.660Z,73.00
2019-03-08T20:31:36.019Z,73.30
2019-03-08T20:34:13.393Z,73.70
2019-03-08T20:36:47.806Z,74.50
2019-03-08T20:39:20.992Z,73.60
2019-03-08T20:41:57.408Z,73.70
2019-03-08T20:44:32.683Z,73.90
2019-03-08T20:47:18.493Z,74.20
2019-03-08T20:49:47.234Z,74.70
2019-03-08T20:52:16.920Z,75.20
2019-03-08T20:54:45.675Z,75.70
2019-03-08T20:57:14.329Z,75.90
2019-03-08T20:59:43.238Z,76.30
2019-03-08T21:02:14.277Z,76.70
2019-03-08T21:04:43.346Z,77.00
2019-03-08T21:07:12.130Z,77.40
2019-03-08T21:09:40.963Z,77.90
2019-03-08T21:12:11.575Z,78.20
2019-03-08T21:14:40.310Z,78.30
2019-03-08T21:17:09.313Z,78.40
2019-03-08T21:19:38.083Z,77.90
2019-03-08T21:22:07.124Z,77.90
2019-03-08T21:24:36.017Z,77.60
2019-03-08T21:27:04.903Z,77.90
2019-03-08T21:29:33.851Z,78.10
2019-03-08T21:32:02.930Z,78.40
2019-03-08T21:34:31.855Z,78.60
2019-03-08T21:37:00.642Z,78.90
2019-03-08T21:39:30.621Z,78.90
2019-03-08T21:41:59.443Z,79.20
2019-03-08T21:44:28.137Z,79.10
2019-03-08T21:46:56.891Z,79.00
2019-03-08T21:49:27.324Z,79.00
2019-03-08T21:51:56.289Z,79.00
2019-03-08T21:54:25.616Z,79.10
2019-03-08T21:56:54.602Z,80.00
2019-03-08T21:59:23.397Z,79.00
2019-03-08T22:01:52.028Z,79.20
2019-03-08T22:04:22.763Z,79.20
2019-03-08T22:06:51.569Z,79.30
2019-03-08T22:09:25.354Z,79.50
2019-03-08T22:11:54.125Z,79.70
2019-03-08T22:14:23.056Z,79.90
2019-03-08T22:16:52.947Z,79.90
2019-03-08T22:19:22.077Z,79.80
2019-03-08T22:21:50.978Z,79.60
2019-03-08T22:24:19.962Z,79.80
2019-03-08T22:26:48.614Z,79.60
2019-03-08T22:29:18.748Z,79.50
2019-03-08T22:31:47.620Z,79.60
2019-03-08T22:34:16.615Z,79.30
2019-03-08T22:36:47.647Z,79.60
2019-03-08T22:39:16.441Z,79.70
2019-03-08T22:41:46.676Z,79.90
2019-03-08T22:44:16.551Z,80.10
2019-03-08T22:46:46.089Z,80.00
2019-03-08T22:49:15.480Z,80.40
2019-03-08T22:51:44.371Z,80.40
2019-03-08T22:54:16.174Z,80.70
2019-03-08T22:56:46.223Z,80.90
2019-03-08T22:59:15.913Z,81.50
2019-03-08T23:01:48.062Z,81.50
2019-03-08T23:04:17.612Z,81.60
2019-03-08T23:06:46.261Z,81.90
2019-03-08T23:09:15.385Z,81.80
2019-03-08T23:11:45.018Z,82.00
2019-03-08T23:14:13.860Z,82.10
2019-03-08T23:16:42.475Z,82.00
2019-03-08T23:19:11.209Z,82.10
2019-03-08T23:21:40.728Z,82.20
2019-03-08T23:24:09.458Z,82.20
2019-03-08T23:26:52.733Z,82.40
2019-03-08T23:29:24.217Z,82.40
2019-03-08T23:31:54.496Z,82.60
2019-03-08T23:34:26.719Z,83.00
2019-03-08T23:36:55.894Z,82.90
2019-03-08T23:39:29.053Z,83.20
2019-03-08T23:41:59.477Z,83.20
2019-03-08T23:44:28.207Z,83.20
2019-03-08T23:46:58.083Z,83.00
2019-03-08T23:49:27.585Z,83.20
2019-03-08T23:51:56.817Z,82.90
2019-03-08T23:54:27.434Z,82.50
2019-03-08T23:56:56.198Z,83.20
2019-03-08T23:59:24.998Z,82.30
